Time;durP1;ratioP1;P1;durP2;ratioP2;P2;SDS_P1;SDS_P2;PMS_P1;PMS_P2;Temp;Humidity;BMP_temperature;BMP_pressure;BME280_temperature;BME280_humidity;BME280_pressure;Samples;Min_cycle;Max_cycle;Signal;HPM_P1;HPM_P2
2022/04/09 00:00:26;;;;;;;12.63;1.83;;;4.80;99.90;;;;;;4967856;28;20089;-73
2022/04/09 00:02:51;;;;;;;7.22;1.90;;;4.90;99.90;;;;;;4963306;28;20039;-73
2022/04/09 00:05:17;;;;;;;8.65;1.20;;;5.00;99.90;;;;;;4969424;28;20547;-72
2022/04/09 00:07:43;;;;;;;6.85;0.90;;;5.10;99.90;;;;;;4968577;28;20105;-72
2022/04/09 00:10:11;;;;;;;8.38;0.98;;;5.10;99.90;;;;;;4968043;28;20571;-72
2022/04/09 00:12:38;;;;;;;12.18;1.33;;;5.00;99.90;;;;;;4965461;28;20047;-73
2022/04/09 00:15:05;;;;;;;10.60;1.23;;;4.90;99.90;;;;;;4965108;28;20047;-72
2022/04/09 00:17:39;;;;;;;7.97;1.02;;;4.90;99.90;;;;;;4964951;28;20161;-73
2022/04/09 00:20:05;;;;;;;6.78;1.10;;;4.90;99.90;;;;;;4983539;28;20053;-73
2022/04/09 00:22:31;;;;;;;9.77;1.27;;;4.80;99.90;;;;;;4965075;28;20034;-72
2022/04/09 00:24:57;;;;;;;8.75;1.25;;;4.80;99.90;;;;;;4967146;28;20511;-72
2022/04/09 00:27:23;;;;;;;11.55;1.85;;;4.70;99.90;;;;;;4967945;28;20046;-72
2022/04/09 00:29:49;;;;;;;13.32;1.10;;;4.60;99.90;;;;;;4965659;28;20514;-73
2022/04/09 00:32:14;;;;;;;13.65;2.15;;;4.70;99.90;;;;;;4981439;28;20038;-73
2022/04/09 00:34:40;;;;;;;6.55;0.80;;;4.60;99.90;;;;;;4967797;28;20043;-73
2022/04/09 00:37:05;;;;;;;10.50;1.27;;;4.60;99.90;;;;;;4982421;28;20408;-72
2022/04/09 00:39:31;;;;;;;6.20;1.15;;;4.60;99.90;;;;;;4965725;28;20062;-72
2022/04/09 00:41:56;;;;;;;7.90;1.10;;;4.60;99.90;;;;;;4966578;28;20070;-72
2022/04/09 00:44:23;;;;;;;5.32;0.75;;;4.60;99.90;;;;;;4968430;28;20034;-73
2022/04/09 00:46:48;;;;;;;5.85;1.15;;;4.60;99.90;;;;;;4965005;28;20043;-72
2022/04/09 00:49:16;;;;;;;9.55;0.90;;;4.60;99.90;;;;;;4966091;28;20050;-72
2022/04/09 00:51:44;;;;;;;7.22;0.68;;;4.70;99.90;;;;;;4965901;28;20051;-73
2022/04/09 00:54:14;;;;;;;7.15;1.02;;;4.60;99.90;;;;;;4967353;28;20077;-73
2022/04/09 00:56:41;;;;;;;7.63;1.08;;;4.70;99.90;;;;;;4966428;28;20057;-73
2022/04/09 00:59:11;;;;;;;7.50;0.98;;;4.70;99.90;;;;;;4965794;28;20585;-73
2022/04/09 01:01:39;;;;;;;6.93;0.90;;;4.70;99.90;;;;;;4963072;28;20050;-73
2022/04/09 01:04:07;;;;;;;7.50;1.00;;;4.80;99.90;;;;;;4965394;28;20045;-73
2022/04/09 01:06:36;;;;;;;15.07;1.00;;;4.80;99.90;;;;;;4968040;28;20039;-73
2022/04/09 01:09:03;;;;;;;7.70;0.90;;;4.80;99.90;;;;;;4966519;28;20047;-72
2022/04/09 01:11:28;;;;;;;5.47;1.05;;;4.90;99.90;;;;;;4966606;28;20062;-72
2022/04/09 01:13:54;;;;;;;8.43;0.77;;;5.00;99.90;;;;;;4965964;28;20043;-72
2022/04/09 01:16:22;;;;;;;13.68;2.85;;;5.00;99.90;;;;;;4978679;28;20094;-72
2022/04/09 01:18:48;;;;;;;11.40;1.38;;;4.90;99.90;;;;;;4966837;28;20085;-72
2022/04/09 01:21:13;;;;;;;9.15;1.25;;;4.90;99.90;;;;;;4983038;28;20059;-72
2022/04/09 01:23:39;;;;;;;7.45;1.20;;;4.80;99.90;;;;;;4966694;28;20027;-72
2022/04/09 01:26:06;;;;;;;6.55;0.93;;;4.90;99.90;;;;;;4980892;28;20043;-72
2022/04/09 01:28:33;;;;;;;9.20;1.10;;;4.90;99.90;;;;;;4968321;28;20035;-72
2022/04/09 01:30:59;;;;;;;7.32;0.88;;;4.80;99.90;;;;;;4966318;28;20046;-72
2022/04/09 01:33:24;;;;;;;12.65;1.70;;;4.90;99.90;;;;;;4966915;28;20507;-72
2022/04/09 01:35:51;;;;;;;9.38;1.95;;;4.90;99.90;;;;;;4964825;28;20034;-72
2022/04/09 01:38:17;;;;;;;12.10;1.48;;;4.90;99.90;;;;;;4963927;28;20058;-73
2022/04/09 01:40:43;;;;;;;9.40;1.33;;;4.90;99.90;;;;;;4963673;28;20047;-72
2022/04/09 01:43:09;;;;;;;7.85;0.80;;;4.90;99.90;;;;;;4967448;28;20034;-72
2022/04/09 01:45:36;;;;;;;8.65;0.93;;;4.90;99.90;;;;;;4962492;28;20046;-72
2022/04/09 01:48:01;;;;;;;10.43;2.15;;;4.90;99.90;;;;;;4963502;28;20492;-72
2022/04/09 01:50:27;;;;;;;9.60;1.30;;;4.80;99.90;;;;;;4965991;28;20082;-72
2022/04/09 01:52:56;;;;;;;9.65;1.23;;;4.80;99.90;;;;;;4966450;28;20042;-73
2022/04/09 01:55:22;;;;;;;12.82;1.30;;;4.80;99.90;;;;;;4962882;28;20054;-73
2022/04/09 01:57:49;;;;;;;6.15;1.05;;;5.20;99.90;;;;;;4980152;28;20114;-72
2022/04/09 02:00:16;;;;;;;8.88;0.95;;;4.80;99.90;;;;;;4965372;28;20047;-72
2022/04/09 02:02:42;;;;;;;11.02;0.90;;;4.70;99.90;;;;;;4964468;28;20049;-72
2022/04/09 02:05:11;;;;;;;9.13;1.15;;;4.70;99.90;;;;;;4962339;28;20045;-72
2022/04/09 02:07:47;;;;;;;14.55;1.63;;;4.60;99.90;;;;;;4962869;28;20065;-73
2022/04/09 02:10:15;;;;;;;7.65;1.85;;;4.70;99.90;;;;;;4962565;28;20108;-72
2022/04/09 02:12:41;;;;;;;8.20;1.20;;;4.60;99.90;;;;;;4965792;28;20057;-72
2022/04/09 02:15:08;;;;;;;10.32;1.15;;;4.50;99.90;;;;;;4965069;28;20042;-72
2022/04/09 02:17:35;;;;;;;7.65;0.80;;;4.50;99.90;;;;;;4981863;28;20121;-73
2022/04/09 02:20:03;;;;;;;6.25;0.70;;;4.50;99.90;;;;;;4966851;28;20035;-72
2022/04/09 02:22:35;;;;;;;9.07;0.82;;;4.40;99.90;;;;;;4964252;28;20046;-73
2022/04/09 02:25:01;;;;;;;5.15;1.25;;;4.40;99.90;;;;;;4963586;28;20047;-72
2022/04/09 02:27:27;;;;;;;6.10;0.93;;;4.40;99.90;;;;;;4947566;28;20112;-72
2022/04/09 02:29:53;;;;;;;10.80;0.70;;;4.30;99.90;;;;;;4967213;28;20046;-72
2022/04/09 02:32:18;;;;;;;5.22;0.75;;;4.20;99.90;;;;;;4981186;28;20089;-73
2022/04/09 02:34:44;;;;;;;4.60;0.40;;;4.20;99.90;;;;;;4965331;28;20449;-72
2022/04/09 02:37:09;;;;;;;7.63;0.50;;;4.20;99.90;;;;;;4979973;28;20051;-73
2022/04/09 02:39:36;;;;;;;6.45;0.70;;;4.10;99.90;;;;;;4964839;28;20050;-72
2022/04/09 02:42:02;;;;;;;9.63;0.60;;;4.10;99.90;;;;;;4963616;28;20113;-72
2022/04/09 02:44:28;;;;;;;6.88;0.70;;;4.10;99.90;;;;;;4962092;28;20043;-72
2022/04/09 02:46:53;;;;;;;4.60;0.40;;;4.10;99.90;;;;;;4964918;28;20393;-73
2022/04/09 02:49:20;;;;;;;6.63;0.60;;;4.10;99.90;;;;;;4962842;28;20027;-72
2022/04/09 02:51:45;;;;;;;5.75;0.73;;;4.10;99.90;;;;;;4962581;28;20093;-72
2022/04/09 02:54:15;;;;;;;4.00;0.40;;;4.10;99.90;;;;;;4963995;28;20096;-73
2022/04/09 02:56:43;;;;;;;3.58;0.47;;;4.10;99.90;;;;;;4945514;28;20126;-73
2022/04/09 02:59:09;;;;;;;4.45;0.70;;;4.10;99.90;;;;;;4959426;28;20047;-72
2022/04/09 03:01:35;;;;;;;6.18;0.57;;;4.00;99.90;;;;;;4966146;28;20045;-73
2022/04/09 03:04:01;;;;;;;8.05;0.45;;;4.00;99.90;;;;;;4964576;28;20439;-72
2022/04/09 03:06:26;;;;;;;5.63;0.57;;;4.10;99.90;;;;;;4963342;28;20079;-73
2022/04/09 03:08:52;;;;;;;4.57;0.50;;;4.00;99.90;;;;;;4963444;28;20496;-72
2022/04/09 03:11:17;;;;;;;6.22;1.10;;;4.00;99.90;;;;;;4979455;28;20050;-72
2022/04/09 03:13:43;;;;;;;9.43;2.15;;;4.00;99.90;;;;;;4964352;28;20058;-72
2022/04/09 03:16:08;;;;;;;9.02;0.85;;;4.00;99.90;;;;;;4964473;28;20046;-73
2022/04/09 03:18:34;;;;;;;4.50;0.60;;;4.10;99.90;;;;;;4964537;28;20385;-72
2022/04/09 03:21:00;;;;;;;5.97;1.50;;;4.00;99.90;;;;;;4966932;28;20109;-73
2022/04/09 03:23:25;;;;;;;6.43;1.20;;;4.00;99.90;;;;;;4965681;28;20039;-72
2022/04/09 03:25:51;;;;;;;7.57;0.73;;;4.00;99.90;;;;;;4965684;28;20661;-72
2022/04/09 03:28:16;;;;;;;8.13;0.63;;;4.00;99.90;;;;;;4966370;28;20462;-72
2022/04/09 03:30:44;;;;;;;5.63;0.60;;;4.00;99.90;;;;;;4964379;28;20411;-72
2022/04/09 03:33:10;;;;;;;6.70;0.70;;;4.00;99.90;;;;;;4964133;28;20493;-72
2022/04/09 03:35:35;;;;;;;4.70;0.50;;;4.00;99.90;;;;;;4965389;28;20054;-72
2022/04/09 03:38:02;;;;;;;4.53;0.30;;;4.00;99.90;;;;;;4967909;28;20573;-72
2022/04/09 03:40:28;;;;;;;5.55;0.40;;;4.00;99.90;;;;;;4965782;28;20038;-72
2022/04/09 03:42:53;;;;;;;7.45;0.60;;;4.00;99.90;;;;;;4966130;28;20054;-72
2022/04/09 03:45:19;;;;;;;8.55;0.82;;;4.00;99.90;;;;;;4967331;28;20043;-72
2022/04/09 03:47:45;;;;;;;4.63;0.45;;;4.00;99.90;;;;;;4965607;28;20077;-72
2022/04/09 03:50:10;;;;;;;9.40;1.48;;;4.00;99.90;;;;;;4968521;28;20039;-73
2022/04/09 03:52:36;;;;;;;13.45;1.10;;;4.00;99.90;;;;;;4928399;28;1032084;-71
2022/04/09 03:55:02;;;;;;;6.30;0.43;;;4.00;99.90;;;;;;4969510;28;20145;-73
2022/04/09 03:57:28;;;;;;;6.32;1.02;;;4.10;99.90;;;;;;4968649;28;20115;-72
2022/04/09 03:59:55;;;;;;;6.93;0.80;;;4.10;99.90;;;;;;4971141;28;20031;-73
2022/04/09 04:02:22;;;;;;;9.68;0.73;;;4.20;99.90;;;;;;4968136;28;20503;-73
2022/04/09 04:04:48;;;;;;;6.03;0.40;;;4.20;99.90;;;;;;4966606;28;20053;-73
2022/04/09 04:07:14;;;;;;;5.50;0.73;;;4.20;99.90;;;;;;4971352;28;20039;-72
2022/04/09 04:09:39;;;;;;;3.53;0.40;;;4.20;99.90;;;;;;4985578;28;20979;-72
2022/04/09 04:12:05;;;;;;;8.48;0.70;;;4.20;99.90;;;;;;4967910;28;20043;-72
2022/04/09 04:14:32;;;;;;;6.47;0.80;;;4.20;99.90;;;;;;4967663;28;20034;-73
2022/04/09 04:16:58;;;;;;;4.72;0.40;;;4.10;99.90;;;;;;4963659;28;20053;-73
2022/04/09 04:19:23;;;;;;;10.68;0.77;;;4.10;99.90;;;;;;4984428;28;20055;-73
2022/04/09 04:21:49;;;;;;;5.00;0.45;;;4.00;99.90;;;;;;4965632;28;20059;-73
2022/04/09 04:24:14;;;;;;;6.70;1.02;;;4.10;99.90;;;;;;4983071;28;20034;-73
2022/04/09 04:26:40;;;;;;;7.30;0.40;;;4.10;99.90;;;;;;4965828;28;20070;-73
2022/04/09 04:29:05;;;;;;;5.25;0.50;;;4.00;99.90;;;;;;4982211;28;20042;-73
2022/04/09 04:31:31;;;;;;;5.55;0.50;;;4.00;99.90;;;;;;4964079;28;20070;-72
2022/04/09 04:33:57;;;;;;;10.73;0.65;;;4.00;99.90;;;;;;4982268;28;20089;-72
2022/04/09 04:36:24;;;;;;;6.78;0.63;;;4.00;99.90;;;;;;4970941;28;20429;-73
2022/04/09 04:38:50;;;;;;;7.18;1.40;;;3.90;99.90;;;;;;4969076;28;20126;-73
2022/04/09 04:41:16;;;;;;;10.27;0.70;;;4.00;99.90;;;;;;4970912;28;20043;-73
2022/04/09 04:43:44;;;;;;;4.15;0.55;;;3.90;99.90;;;;;;4970833;28;20374;-73
2022/04/09 04:46:11;;;;;;;7.43;0.40;;;4.00;99.90;;;;;;4968683;28;20043;-72
2022/04/09 04:48:37;;;;;;;7.50;0.70;;;4.00;99.90;;;;;;4969156;28;20046;-73
2022/04/09 04:51:02;;;;;;;6.05;0.52;;;4.00;99.90;;;;;;4967860;28;20031;-73
2022/04/09 04:53:28;;;;;;;6.57;0.50;;;4.00;99.90;;;;;;4969840;28;20138;-72
2022/04/09 04:55:54;;;;;;;7.40;0.88;;;4.10;99.90;;;;;;4970622;28;20405;-72
2022/04/09 04:58:20;;;;;;;8.05;0.95;;;4.10;99.90;;;;;;4968445;28;20046;-72
2022/04/09 05:00:46;;;;;;;5.43;0.70;;;4.10;99.90;;;;;;4968948;28;20133;-72
2022/04/09 05:03:12;;;;;;;7.57;1.15;;;4.20;99.90;;;;;;4967263;28;20051;-73
2022/04/09 05:05:37;;;;;;;6.80;0.88;;;4.30;99.90;;;;;;4969718;28;20043;-73
2022/04/09 05:08:03;;;;;;;6.70;1.13;;;4.20;99.90;;;;;;4971553;28;20117;-73
2022/04/09 05:10:29;;;;;;;5.82;0.70;;;4.30;99.90;;;;;;4973354;28;20034;-72
2022/04/09 05:12:54;;;;;;;5.20;0.85;;;4.30;99.90;;;;;;4968711;28;20146;-72
2022/04/09 05:15:20;;;;;;;8.32;0.77;;;4.30;99.90;;;;;;4969049;28;20085;-72
2022/04/09 05:17:46;;;;;;;11.00;0.90;;;4.30;99.90;;;;;;4968185;28;20489;-72
2022/04/09 05:20:14;;;;;;;5.75;1.25;;;4.40;99.90;;;;;;4983700;28;20133;-72
2022/04/09 05:22:46;;;;;;;4.80;0.60;;;4.60;99.90;;;;;;4969435;28;20650;-72
2022/04/09 05:25:14;;;;;;;7.05;0.68;;;4.70;99.90;;;;;;4964983;28;20373;-73
2022/04/09 05:27:40;;;;;;;7.43;0.70;;;4.90;99.90;;;;;;4969716;28;20109;-73
2022/04/09 05:30:06;;;;;;;7.88;1.65;;;5.50;99.90;;;;;;4985902;28;20042;-73
2022/04/09 05:32:32;;;;;;;6.53;1.13;;;6.20;99.90;;;;;;4968899;28;20050;-73
2022/04/09 05:34:58;;;;;;;8.38;1.40;;;7.10;99.90;;;;;;4965983;28;20038;-73
2022/04/09 05:37:26;;;;;;;6.93;0.65;;;7.90;99.90;;;;;;4981468;28;20249;-73
2022/04/09 05:39:51;;;;;;;3.25;0.40;;;8.50;99.90;;;;;;4968329;28;20508;-73
2022/04/09 05:42:17;;;;;;;8.75;1.05;;;9.50;99.90;;;;;;4977713;28;20039;-73
2022/04/09 05:44:43;;;;;;;3.70;0.70;;;10.60;99.90;;;;;;4966414;28;20049;-73
2022/04/09 05:47:08;;;;;;;3.25;0.63;;;11.70;99.90;;;;;;4965285;28;20042;-70
2022/04/09 05:49:34;;;;;;;7.13;0.95;;;12.70;99.90;;;;;;4964245;28;20051;-69
2022/04/09 05:52:03;;;;;;;3.92;0.40;;;13.40;99.90;;;;;;4966451;28;20042;-71
2022/04/09 05:54:30;;;;;;;7.07;0.82;;;13.60;97.20;;;;;;4967140;28;20043;-70
2022/04/09 05:56:56;;;;;;;4.22;0.70;;;13.00;97.40;;;;;;4965512;28;20126;-70
2022/04/09 05:59:23;;;;;;;3.63;0.50;;;12.10;97.00;;;;;;4965740;28;20441;-70
2022/04/09 06:01:49;;;;;;;4.57;0.45;;;11.30;98.40;;;;;;4979793;28;20126;-69
2022/04/09 06:04:19;;;;;;;4.53;0.57;;;10.60;99.90;;;;;;4966868;28;20488;-69
2022/04/09 06:06:44;;;;;;;3.15;0.55;;;10.20;99.90;;;;;;4964857;28;20053;-69
2022/04/09 06:09:10;;;;;;;4.07;0.55;;;9.60;99.90;;;;;;4966745;28;20050;-68
2022/04/09 06:11:36;;;;;;;5.90;1.45;;;9.40;99.90;;;;;;4965721;28;20054;-67
2022/04/09 06:14:01;;;;;;;2.67;0.40;;;9.40;99.90;;;;;;4964934;28;20049;-67
2022/04/09 06:16:27;;;;;;;5.13;0.70;;;9.20;99.90;;;;;;4965662;28;20114;-67
2022/04/09 06:18:53;;;;;;;7.18;1.67;;;9.10;99.90;;;;;;4962296;28;20038;-68
2022/04/09 06:21:18;;;;;;;6.53;0.95;;;9.60;99.90;;;;;;4980762;28;20043;-67
2022/04/09 06:23:44;;;;;;;5.53;0.60;;;11.00;99.90;;;;;;4963674;28;20069;-68
2022/04/09 06:26:10;;;;;;;4.78;0.80;;;12.80;99.90;;;;;;4966022;28;20109;-68
2022/04/09 06:28:35;;;;;;;4.85;0.85;;;14.50;99.90;;;;;;4965053;28;20030;-68
2022/04/09 06:31:07;;;;;;;6.13;0.88;;;16.10;97.70;;;;;;4964737;28;20043;-68
2022/04/09 06:33:33;;;;;;;4.32;0.65;;;17.40;87.00;;;;;;4965325;28;20055;-68
2022/04/09 06:35:58;;;;;;;5.03;0.60;;;18.20;76.80;;;;;;4965895;28;20251;-70
2022/04/09 06:38:27;;;;;;;6.60;1.25;;;19.00;70.60;;;;;;4964742;28;20058;-70
2022/04/09 06:40:52;;;;;;;3.47;0.70;;;19.90;67.50;;;;;;4966820;28;20046;-70
2022/04/09 06:43:18;;;;;;;6.05;0.80;;;20.80;63.10;;;;;;4967033;28;20499;-70
2022/04/09 06:45:44;;;;;;;4.90;0.95;;;21.50;59.40;;;;;;4968841;28;20046;-70
2022/04/09 06:48:16;;;;;;;7.80;1.30;;;21.70;56.90;;;;;;4964571;28;20054;-70
2022/04/09 06:50:42;;;;;;;5.60;1.30;;;20.80;54.70;;;;;;4960475;28;20054;-70
2022/04/09 06:53:08;;;;;;;8.98;1.20;;;20.40;57.70;;;;;;4957754;28;20054;-70
2022/04/09 06:55:33;;;;;;;8.90;1.30;;;20.00;58.80;;;;;;4964253;28;20038;-70
2022/04/09 06:58:01;;;;;;;9.13;1.55;;;19.50;58.60;;;;;;4966692;28;20039;-70
2022/04/09 07:00:27;;;;;;;11.93;1.60;;;18.70;59.80;;;;;;4961882;28;20047;-70
2022/04/09 07:02:53;;;;;;;9.40;1.05;;;17.30;61.40;;;;;;4960942;28;20042;-70
2022/04/09 07:05:18;;;;;;;9.57;1.33;;;16.20;63.20;;;;;;4959903;28;20062;-70
2022/04/09 07:07:50;;;;;;;5.07;1.15;;;15.50;67.00;;;;;;4959464;28;20090;-70
2022/04/09 07:10:16;;;;;;;5.90;1.05;;;15.00;71.40;;;;;;4960902;28;20043;-70
2022/04/09 07:12:43;;;;;;;7.10;0.70;;;14.50;74.50;;;;;;4959508;28;20054;-70
2022/04/09 07:15:10;;;;;;;4.25;0.47;;;14.20;73.10;;;;;;4961585;28;20106;-70
2022/04/09 07:17:36;;;;;;;3.83;0.57;;;13.90;75.60;;;;;;4964389;28;20134;-70
2022/04/09 07:20:07;;;;;;;6.30;0.85;;;13.60;76.90;;;;;;4965249;28;20412;-70
2022/04/09 07:22:34;;;;;;;4.57;0.50;;;13.60;80.20;;;;;;4963508;28;20039;-70
2022/04/09 07:25:00;;;;;;;4.10;0.70;;;13.40;81.90;;;;;;4964879;28;20113;-70
2022/04/09 07:27:40;;;;;;;4.10;0.77;;;13.40;83.50;;;;;;4961747;28;20764;-71
2022/04/09 07:30:09;;;;;;;4.20;0.70;;;13.20;87.50;;;;;;4964070;28;20042;-71
2022/04/09 07:32:35;;;;;;;6.57;0.80;;;13.20;89.60;;;;;;4964989;28;20054;-72
2022/04/09 07:35:01;;;;;;;6.63;1.40;;;13.20;90.30;;;;;;4963653;28;20062;-71
2022/04/09 07:37:27;;;;;;;9.82;2.20;;;12.90;88.30;;;;;;4962067;28;20043;-71
2022/04/09 07:39:52;;;;;;;10.23;1.42;;;12.90;91.60;;;;;;4963169;28;20175;-71
2022/04/09 07:42:21;;;;;;;8.20;1.70;;;12.90;93.40;;;;;;4964170;28;20038;-71
2022/04/09 07:44:47;;;;;;;8.95;1.10;;;12.80;93.30;;;;;;4976714;28;20073;-71
2022/04/09 07:47:13;;;;;;;9.15;1.65;;;12.80;93.10;;;;;;4964126;28;20050;-71
2022/04/09 07:49:39;;;;;;;7.55;0.95;;;12.80;94.20;;;;;;4962955;28;20648;-71
2022/04/09 07:52:04;;;;;;;5.10;0.90;;;12.60;94.40;;;;;;4965333;28;20084;-71
2022/04/09 07:54:31;;;;;;;6.95;0.93;;;12.60;94.40;;;;;;4980164;28;20060;-71
2022/04/09 07:56:57;;;;;;;6.13;1.27;;;12.70;93.60;;;;;;4960453;28;20043;-71
2022/04/09 07:59:23;;;;;;;7.28;1.55;;;12.40;94.20;;;;;;4978550;28;20586;-70
2022/04/09 08:01:48;;;;;;;5.57;0.75;;;12.60;95.40;;;;;;4963789;28;20138;-71
2022/04/09 08:04:14;;;;;;;3.25;0.60;;;12.60;95.30;;;;;;4966413;28;20182;-71
2022/04/09 08:06:40;;;;;;;6.20;1.10;;;12.50;91.80;;;;;;4966830;28;20591;-70
2022/04/09 08:09:05;;;;;;;5.75;0.90;;;12.40;91.30;;;;;;4983345;28;20043;-70
2022/04/09 08:11:31;;;;;;;6.20;0.80;;;12.30;93.40;;;;;;4984127;28;20058;-70
2022/04/09 08:13:57;;;;;;;5.63;0.80;;;12.30;93.90;;;;;;4967733;28;20039;-70
2022/04/09 08:16:25;;;;;;;7.20;0.90;;;12.40;93.30;;;;;;4951795;28;20512;-70
2022/04/09 08:18:51;;;;;;;4.28;1.10;;;12.40;93.90;;;;;;4966551;28;20042;-70
2022/04/09 08:21:18;;;;;;;6.78;0.75;;;12.40;92.80;;;;;;4983949;28;20533;-70
2022/04/09 08:23:44;;;;;;;7.43;0.90;;;12.20;92.00;;;;;;4969282;28;21591;-70
2022/04/09 08:26:09;;;;;;;12.65;1.60;;;12.20;92.90;;;;;;4967158;28;20055;-70
2022/04/09 08:28:36;;;;;;;8.32;1.25;;;12.30;94.80;;;;;;4968053;28;20043;-70
2022/04/09 08:31:02;;;;;;;8.40;1.30;;;12.20;93.30;;;;;;4967479;28;20039;-70
2022/04/09 08:33:28;;;;;;;4.55;0.80;;;12.10;92.50;;;;;;4965107;28;20078;-70
2022/04/09 08:35:54;;;;;;;5.93;0.93;;;11.80;93.10;;;;;;4967811;28;20094;-70
2022/04/09 08:38:19;;;;;;;6.18;1.15;;;11.70;91.20;;;;;;4966683;28;20038;-70
2022/04/09 08:40:46;;;;;;;7.97;1.02;;;11.70;94.60;;;;;;4970423;28;20035;-70
2022/04/09 08:43:11;;;;;;;5.50;0.77;;;11.90;96.20;;;;;;4967730;28;20038;-70
2022/04/09 08:45:41;;;;;;;6.00;0.75;;;12.00;96.50;;;;;;4966826;28;20449;-70
2022/04/09 08:48:09;;;;;;;9.07;1.02;;;12.10;93.50;;;;;;4966955;28;20042;-70
2022/04/09 08:50:35;;;;;;;4.15;0.55;;;12.10;88.70;;;;;;4968885;28;20042;-70
2022/04/09 08:53:06;;;;;;;6.20;0.70;;;12.10;86.10;;;;;;4967138;28;20093;-70
2022/04/09 08:55:36;;;;;;;6.32;1.10;;;12.00;83.50;;;;;;4966179;28;20051;-70
2022/04/09 08:58:03;;;;;;;5.38;0.88;;;12.00;87.20;;;;;;4969195;28;20039;-70
2022/04/09 09:00:29;;;;;;;5.72;0.90;;;12.10;88.00;;;;;;4967702;28;20042;-70
2022/04/09 09:02:58;;;;;;;5.95;0.98;;;12.30;92.10;;;;;;4966938;28;20064;-70
2022/04/09 09:05:48;;;;;;;5.00;0.80;;;12.60;91.90;;;;;;4967456;28;20110;-70
2022/04/09 09:08:14;;;;;;;6.40;0.77;;;12.80;87.50;;;;;;4965785;28;20414;-70
2022/04/09 09:10:40;;;;;;;6.30;0.77;;;12.70;86.50;;;;;;4966196;28;20068;-70
2022/04/09 09:13:11;;;;;;;5.90;0.90;;;12.60;86.60;;;;;;4969766;28;20149;-70
2022/04/09 09:15:57;;;;;;;6.75;1.00;;;12.70;89.40;;;;;;4964403;28;20062;-70
2022/04/09 09:18:27;;;;;;;9.40;1.35;;;12.70;89.20;;;;;;4966258;28;20599;-70
2022/04/09 09:21:00;;;;;;;6.95;0.90;;;12.60;88.00;;;;;;4967527;28;20086;-70
2022/04/09 09:23:33;;;;;;;6.22;1.10;;;12.80;89.80;;;;;;4965223;28;20039;-69
2022/04/09 09:26:01;;;;;;;6.90;0.90;;;12.60;88.00;;;;;;4966518;28;20034;-70
2022/04/09 09:28:30;;;;;;;6.97;1.30;;;12.60;88.50;;;;;;4963641;28;20519;-70
2022/04/09 09:30:58;;;;;;;5.47;1.00;;;12.70;87.70;;;;;;4964187;28;20046;-70
2022/04/09 09:33:25;;;;;;;5.82;0.95;;;12.90;82.80;;;;;;4966437;28;20484;-70
2022/04/09 09:35:52;;;;;;;5.80;0.80;;;12.80;82.30;;;;;;4966488;28;20053;-70
2022/04/09 09:38:23;;;;;;;5.10;1.10;;;12.80;84.70;;;;;;4964757;28;20042;-70
2022/04/09 09:40:49;;;;;;;4.90;0.77;;;12.90;86.30;;;;;;4967205;28;20685;-70
2022/04/09 09:43:20;;;;;;;5.65;0.90;;;12.80;84.60;;;;;;4963001;28;20047;-70
2022/04/09 09:45:47;;;;;;;8.23;1.08;;;13.00;88.80;;;;;;4964537;28;20039;-70
2022/04/09 09:48:26;;;;;;;6.57;1.70;;;13.20;86.20;;;;;;4967378;28;20058;-70
2022/04/09 09:50:53;;;;;;;5.43;0.90;;;13.00;81.30;;;;;;4962270;28;20035;-70
2022/04/09 09:53:33;;;;;;;4.90;1.08;;;13.00;86.30;;;;;;4962237;28;20076;-70
2022/04/09 09:56:00;;;;;;;6.18;0.73;;;12.90;82.80;;;;;;4964153;28;20031;-70
2022/04/09 09:58:27;;;;;;;4.93;0.90;;;12.70;87.30;;;;;;4960743;28;20094;-70
2022/04/09 10:00:55;;;;;;;6.90;1.00;;;12.80;88.70;;;;;;4963749;28;20070;-70
2022/04/09 10:03:21;;;;;;;5.25;0.90;;;12.70;81.90;;;;;;4962392;28;20057;-70
2022/04/09 10:05:49;;;;;;;6.88;1.42;;;12.10;86.20;;;;;;4962040;28;20059;-70
2022/04/09 10:08:14;;;;;;;8.70;1.67;;;11.90;90.70;;;;;;4961985;28;21564;-70
2022/04/09 10:10:43;;;;;;;7.05;1.55;;;11.70;93.00;;;;;;4962086;28;20146;-70
2022/04/09 10:13:10;;;;;;;3.85;0.70;;;11.60;93.60;;;;;;4963467;28;20220;-70
2022/04/09 10:15:39;;;;;;;5.00;0.70;;;11.50;96.00;;;;;;4960053;28;20111;-70
2022/04/09 10:18:06;;;;;;;4.10;0.88;;;11.60;92.30;;;;;;4978938;28;21095;-70
2022/04/09 10:20:33;;;;;;;4.35;0.50;;;11.70;90.80;;;;;;4963392;28;20065;-70
2022/04/09 10:23:03;;;;;;;5.00;0.68;;;12.00;93.00;;;;;;4963808;28;20516;-70
2022/04/09 10:25:32;;;;;;;5.05;0.85;;;12.30;90.20;;;;;;4961604;28;20075;-70
2022/04/09 10:28:03;;;;;;;6.07;0.77;;;12.20;87.90;;;;;;4961321;28;20043;-70
2022/04/09 10:30:38;;;;;;;7.88;1.00;;;12.20;91.00;;;;;;4960502;28;20051;-70
2022/04/09 10:33:19;;;;;;;;;;;12.50;91.40;;;;;;4959763;28;20082;-70
2022/04/09 10:35:46;;;;;;;5.82;1.20;;;12.60;93.20;;;;;;4961135;28;20384;-70
2022/04/09 10:38:16;;;;;;;8.60;1.13;;;12.50;92.10;;;;;;4960719;28;20153;-70
2022/04/09 10:40:55;;;;;;;5.68;1.02;;;12.50;92.70;;;;;;4959038;28;20046;-69
2022/04/09 10:43:27;;;;;;;5.55;0.63;;;12.30;92.90;;;;;;4959493;28;20096;-69
2022/04/09 10:46:15;;;;;;;6.75;0.93;;;11.90;92.50;;;;;;4959032;28;20046;-69
2022/04/09 10:48:44;;;;;;;4.40;0.60;;;11.50;94.20;;;;;;4962723;28;20062;-69
2022/04/09 10:51:15;;;;;;;7.35;0.98;;;10.80;94.00;;;;;;4959495;28;20062;-69
2022/04/09 10:53:41;;;;;;;6.80;1.10;;;10.40;97.80;;;;;;4962470;28;20039;-69
2022/04/09 10:56:10;;;;;;;5.05;0.85;;;10.00;99.90;;;;;;4962978;28;20039;-69
2022/04/09 10:59:02;;;;;;;4.38;0.52;;;9.70;99.90;;;;;;4962571;28;20042;-68
2022/04/09 11:01:46;;;;;;;4.40;0.50;;;9.60;99.90;;;;;;4987045;28;20055;-68
2022/04/09 11:04:29;;;;;;;7.13;0.70;;;9.40;99.90;;;;;;4963658;28;20062;-69
2022/04/09 11:07:08;;;;;;;2.78;0.43;;;9.40;99.90;;;;;;4962183;28;20448;-69
2022/04/09 11:09:45;;;;;;;1.95;0.30;;;9.20;99.90;;;;;;4960076;28;20042;-70
2022/04/09 11:12:34;;;;;;;3.35;0.65;;;9.30;99.90;;;;;;4968546;28;20445;-70
2022/04/09 11:15:06;;;;;;;4.30;0.52;;;9.50;99.90;;;;;;4960690;28;20054;-70
2022/04/09 11:17:36;;;;;;;2.42;0.30;;;9.70;99.90;;;;;;4975961;28;20122;-70
2022/04/09 11:20:04;;;;;;;4.57;0.60;;;10.20;99.90;;;;;;4962188;28;20059;-70
2022/04/09 11:22:44;;;;;;;5.35;0.50;;;10.60;99.90;;;;;;4960968;28;20046;-70
2022/04/09 11:25:27;;;;;;;8.30;0.68;;;10.90;99.90;;;;;;4960924;28;20050;-68
2022/04/09 11:28:05;;;;;;;6.10;0.80;;;11.10;99.90;;;;;;4959860;28;20043;-68
2022/04/09 11:30:31;;;;;;;6.57;0.80;;;11.50;99.90;;;;;;4960128;28;20047;-68
2022/04/09 11:32:57;;;;;;;11.02;1.63;;;11.60;99.90;;;;;;4961312;28;20049;-68
2022/04/09 11:35:26;;;;;;;8.05;0.90;;;11.60;99.90;;;;;;4960539;28;20039;-68
2022/04/09 11:37:52;;;;;;;6.63;0.98;;;11.40;99.90;;;;;;4962738;28;20043;-68
2022/04/09 11:40:20;;;;;;;5.60;1.00;;;11.40;99.90;;;;;;4979964;28;20093;-68
2022/04/09 11:42:48;;;;;;;8.88;1.10;;;11.20;99.90;;;;;;4983058;28;20073;-68
2022/04/09 11:45:28;;;;;;;9.98;1.05;;;11.00;99.90;;;;;;4970299;28;20085;-68
2022/04/09 11:47:58;;;;;;;8.70;1.48;;;10.70;99.90;;;;;;4969121;28;20047;-67
2022/04/09 11:50:25;;;;;;;10.95;1.35;;;10.50;99.90;;;;;;4970786;28;20098;-67
2022/04/09 11:52:53;;;;;;;4.38;0.75;;;10.40;99.90;;;;;;4968659;28;20070;-68
2022/04/09 11:55:19;;;;;;;7.43;1.02;;;10.50;99.90;;;;;;4968703;28;20129;-68
2022/04/09 11:57:52;;;;;;;8.88;0.73;;;10.70;99.90;;;;;;4971403;28;20531;-67
2022/04/09 12:00:27;;;;;;;6.78;1.25;;;11.10;99.90;;;;;;4968200;28;20058;-67
2022/04/09 12:02:53;;;;;;;6.40;0.80;;;11.60;99.90;;;;;;4967065;28;20476;-68
2022/04/09 12:05:20;;;;;;;5.43;0.60;;;11.40;99.90;;;;;;4963103;28;20393;-67
2022/04/09 12:07:47;;;;;;;5.18;1.13;;;11.20;99.90;;;;;;4981305;28;20039;-68
2022/04/09 12:10:22;;;;;;;6.10;0.60;;;11.10;99.90;;;;;;4966106;28;20043;-68
2022/04/09 12:13:01;;;;;;;5.97;0.63;;;11.30;99.90;;;;;;4968975;28;20054;-68
2022/04/09 12:15:34;;;;;;;5.25;0.52;;;11.60;99.90;;;;;;4965864;28;20050;-68
2022/04/09 12:18:04;;;;;;;6.15;0.75;;;11.90;99.90;;;;;;4967499;28;20039;-68
2022/04/09 12:20:43;;;;;;;4.07;0.75;;;12.10;99.90;;;;;;4983397;28;20050;-68
2022/04/09 12:23:09;;;;;;;3.40;0.50;;;11.80;99.90;;;;;;4984759;28;20043;-68
2022/04/09 12:25:42;;;;;;;2.90;0.30;;;11.40;99.60;;;;;;4985695;28;20049;-68
2022/04/09 12:28:23;;;;;;;3.63;0.40;;;10.90;99.40;;;;;;4970852;28;20445;-68
2022/04/09 12:30:51;;;;;;;4.18;0.60;;;10.70;99.90;;;;;;4973158;28;20516;-68
2022/04/09 12:33:18;;;;;;;4.32;0.52;;;10.40;99.90;;;;;;4972046;28;20074;-68
2022/04/09 12:35:44;;;;;;;2.95;0.30;;;10.40;99.90;;;;;;4969605;28;20065;-67
2022/04/09 12:38:09;;;;;;;3.47;0.30;;;10.20;99.90;;;;;;4968892;28;20046;-68
2022/04/09 12:40:37;;;;;;;3.20;0.40;;;10.20;99.90;;;;;;4968794;28;20397;-68
2022/04/09 12:43:52;;;;;;;2.92;0.60;;;10.30;99.90;;;;;;4968704;28;20043;-68
2022/04/09 12:46:19;;;;;;;2.50;0.40;;;10.70;99.90;;;;;;4968380;28;20593;-68
2022/04/09 12:48:45;;;;;;;3.50;0.30;;;11.00;99.90;;;;;;4969474;28;20043;-68
2022/04/09 12:51:14;;;;;;;1.10;0.10;;;11.30;99.90;;;;;;4952433;28;20042;-68
2022/04/09 12:53:41;;;;;;;1.38;0.20;;;11.40;99.90;;;;;;4971442;28;20062;-68